Time;durP1;ratioP1;P1;durP2;ratioP2;P2;SDS_P1;SDS_P2;PMS_P1;PMS_P2;Temp;Humidity;BMP_temperature;BMP_pressure;BME280_temperature;BME280_humidity;BME280_pressure;Samples;Min_cycle;Max_cycle;Signal;HPM_P1;HPM_P2
2023/12/14 00:00:29;;;;;;;14.40;12.20;;;;;;;0.56;100.00;99673.66;87201;275;136720;-71
2023/12/14 00:02:31;;;;;;;17.10;12.30;;;;;;;0.55;100.00;99663.67;87405;271;22558;-72
2023/12/14 00:04:33;;;;;;;9.50;8.00;;;;;;;0.43;100.00;99655.14;87297;278;136691;-71
2023/12/14 00:06:35;;;;;;;14.80;11.10;;;;;;;0.36;100.00;99642.86;87353;270;23997;-71
2023/12/14 00:08:37;;;;;;;16.10;12.70;;;;;;;0.37;100.00;99654.77;87276;271;136533;-70
2023/12/14 00:10:42;;;;;;;14.30;12.80;;;;;;;0.38;100.00;99650.86;87389;271;22574;-70
2023/12/14 00:12:44;;;;;;;9.40;7.80;;;;;;;0.36;100.00;99647.21;87273;271;136519;-71
2023/12/14 00:14:46;;;;;;;12.20;10.60;;;;;;;0.31;100.00;99645.44;87446;267;25129;-72
2023/12/14 00:16:49;;;;;;;13.00;11.40;;;;;;;0.24;100.00;99626.06;87310;278;136460;-71
2023/12/14 00:18:51;;;;;;;17.10;13.10;;;;;;;0.35;100.00;99637.36;87414;275;22562;-72
2023/12/14 00:20:53;;;;;;;14.50;12.70;;;;;;;0.35;100.00;99649.70;87208;274;136630;-73
2023/12/14 00:22:55;;;;;;;15.10;13.50;;;;;;;0.37;100.00;99638.52;87496;274;22558;-72
2023/12/14 00:24:57;;;;;;;15.40;12.00;;;;;;;0.39;100.00;99632.39;87151;268;136890;-71
2023/12/14 00:26:59;;;;;;;12.90;8.10;;;;;;;0.33;100.00;99630.39;87400;270;22562;-71
2023/12/14 00:29:01;;;;;;;9.10;7.70;;;;;;;0.28;100.00;99627.19;87294;266;136408;-70
2023/12/14 00:31:04;;;;;;;10.40;8.60;;;;;;;0.27;100.00;99626.55;87388;271;25283;-70
2023/12/14 00:33:06;;;;;;;18.00;10.90;;;;;;;0.28;100.00;99622.27;87389;270;136174;-72
2023/12/14 00:35:08;;;;;;;11.90;8.70;;;;;;;0.27;100.00;99633.34;87280;268;25107;-70
2023/12/14 00:37:11;;;;;;;11.10;9.50;;;;;;;0.25;100.00;99629.13;87262;262;136549;-71
2023/12/14 00:39:13;;;;;;;11.30;9.30;;;;;;;0.25;100.00;99622.92;87323;274;22562;-71
2023/12/14 00:41:15;;;;;;;12.10;9.90;;;;;;;0.25;100.00;99619.73;87220;266;136356;-71
2023/12/14 00:43:17;;;;;;;13.10;11.40;;;;;;;0.24;100.00;99615.11;87374;270;23998;-70
2023/12/14 00:45:19;;;;;;;14.70;12.60;;;;;;;0.26;100.00;99609.20;87325;262;136712;-70
2023/12/14 00:47:21;;;;;;;14.80;12.20;;;;;;;0.26;100.00;99620.16;87426;278;24023;-72
2023/12/14 00:49:27;;;;;;;14.30;10.60;;;;;;;0.25;100.00;99620.83;87207;266;136575;-71
2023/12/14 00:51:30;;;;;;;12.30;7.10;;;;;;;0.23;100.00;99612.73;87365;274;24125;-71
2023/12/14 00:53:32;;;;;;;14.20;11.80;;;;;;;0.19;100.00;99594.00;87257;274;136606;-72
2023/12/14 00:55:34;;;;;;;12.40;10.50;;;;;;;0.18;100.00;99605.65;87359;267;22594;-71
2023/12/14 00:57:36;;;;;;;16.20;11.90;;;;;;;0.17;100.00;99597.90;87275;268;137345;-70
2023/12/14 00:59:38;;;;;;;13.10;11.60;;;;;;;0.15;100.00;99582.67;87329;276;25103;-71
2023/12/14 01:01:40;;;;;;;12.90;11.00;;;;;;;0.14;100.00;99589.44;87324;278;138138;-70
2023/12/14 01:03:42;;;;;;;10.20;9.20;;;;;;;0.12;100.00;99577.87;87403;274;23997;-71
2023/12/14 01:05:44;;;;;;;11.80;10.60;;;;;;;0.10;100.00;99572.73;87120;275;136547;-71
2023/12/14 01:07:46;;;;;;;17.00;14.20;;;;;;;0.11;100.00;99590.56;87392;271;22644;-73
2023/12/14 01:09:48;;;;;;;12.60;11.30;;;;;;;0.15;100.00;99576.96;87090;272;136555;-72
2023/12/14 01:11:50;;;;;;;15.50;11.60;;;;;;;0.15;100.00;99574.09;87331;271;24030;-74
2023/12/14 01:13:52;;;;;;;15.00;11.40;;;;;;;0.16;100.00;99579.11;87156;270;136785;-70
2023/12/14 01:15:54;;;;;;;12.70;11.20;;;;;;;0.16;100.00;99571.27;87226;278;22565;-71
2023/12/14 01:17:56;;;;;;;15.60;12.70;;;;;;;0.14;100.00;99584.84;87222;278;137769;-70
2023/12/14 01:19:58;;;;;;;12.60;11.30;;;;;;;0.16;100.00;99587.86;87224;274;26374;-69
2023/12/14 01:22:00;;;;;;;15.90;12.90;;;;;;;0.17;100.00;99579.69;87225;274;136698;-71
2023/12/14 01:24:01;;;;;;;13.20;10.60;;;;;;;0.18;100.00;99569.34;87389;274;22574;-69
2023/12/14 01:26:04;;;;;;;14.90;13.40;;;;;;;0.17;100.00;99576.23;87451;270;22541;-72
2023/12/14 01:28:06;;;;;;;11.70;9.80;;;;;;;0.16;100.00;99566.89;87259;274;138295;-70
2023/12/14 01:30:08;;;;;;;13.80;10.40;;;;;;;0.08;100.00;99573.20;87219;267;22572;-72
2023/12/14 01:32:10;;;;;;;12.40;11.10;;;;;;;0.08;100.00;99569.73;87307;274;138025;-71
2023/12/14 01:34:12;;;;;;;12.80;11.50;;;;;;;0.07;100.00;99570.70;87343;270;25136;-71
2023/12/14 01:36:22;;;;;;;14.10;11.10;;;;;;;0.07;100.00;99568.09;87214;274;136876;-68
2023/12/14 01:38:24;;;;;;;14.20;12.10;;;;;;;0.08;100.00;99559.11;87324;278;22571;-71
2023/12/14 01:40:26;;;;;;;14.00;11.10;;;;;;;0.06;100.00;99557.14;87202;270;136704;-69
2023/12/14 01:42:28;;;;;;;11.30;10.10;;;;;;;0.06;100.00;99552.81;87341;278;23770;-69
2023/12/14 01:44:30;;;;;;;15.20;12.40;;;;;;;0.05;100.00;99539.41;87184;270;137174;-71
2023/12/14 01:46:32;;;;;;;12.40;10.90;;;;;;;0.04;100.00;99532.33;87495;266;22574;-72
2023/12/14 01:48:34;;;;;;;12.60;11.30;;;;;;;0.03;100.00;99541.90;87291;270;137100;-72
2023/12/14 01:50:36;;;;;;;11.20;10.10;;;;;;;0.04;100.00;99524.33;87646;278;22645;-73
2023/12/14 01:52:38;;;;;;;11.30;10.20;;;;;;;0.03;100.00;99522.46;87126;280;136647;-68
2023/12/14 01:54:40;;;;;;;11.00;9.70;;;;;;;0.02;100.00;99525.77;87283;270;23739;-69
2023/12/14 01:56:42;;;;;;;10.10;8.90;;;;;;;-0.02;100.00;99514.17;87277;274;136564;-70
2023/12/14 01:58:44;;;;;;;14.60;12.60;;;;;;;-0.02;100.00;99513.48;87380;278;25088;-70
2023/12/14 02:01:13;;;;;;;12.80;11.60;;;;;;;-0.10;100.00;99492.00;87209;267;137114;-69
2023/12/14 02:03:17;;;;;;;12.60;11.10;;;;;;;0.00;100.00;99503.34;87357;270;22563;-70
2023/12/14 02:05:21;;;;;;;11.50;10.40;;;;;;;0.01;100.00;99500.53;87261;271;137036;-70
2023/12/14 02:07:23;;;;;;;12.50;10.80;;;;;;;-0.05;100.00;99500.11;87475;270;22570;-71
2023/12/14 02:09:26;;;;;;;12.90;10.80;;;;;;;-0.09;100.00;99509.29;87187;266;136992;-70
2023/12/14 02:11:28;;;;;;;9.50;7.60;;;;;;;-0.11;100.00;99484.98;87437;270;22575;-70
2023/12/14 02:13:30;;;;;;;13.00;11.70;;;;;;;-0.12;100.00;99483.15;87297;270;136741;-69
2023/12/14 02:15:32;;;;;;;12.70;11.30;;;;;;;-0.09;100.00;99485.01;87343;270;24068;-70
2023/12/14 02:17:35;;;;;;;14.10;11.10;;;;;;;-0.10;100.00;99477.57;87188;278;138273;-70
2023/12/14 02:19:37;;;;;;;12.90;10.30;;;;;;;-0.08;100.00;99484.02;87262;271;22582;-68
2023/12/14 02:21:39;;;;;;;13.00;9.60;;;;;;;-0.13;100.00;99475.89;87220;270;137376;-68
2023/12/14 02:23:46;;;;;;;12.90;11.60;;;;;;;-0.14;100.00;99468.70;87377;271;22503;-70
2023/12/14 02:25:48;;;;;;;14.80;12.60;;;;;;;-0.13;100.00;99467.40;87173;270;137385;-72
2023/12/14 02:27:51;;;;;;;12.80;10.80;;;;;;;-0.11;100.00;99459.88;87497;270;22555;-75
2023/12/14 02:29:54;;;;;;;13.60;12.20;;;;;;;-0.09;100.00;99454.92;87411;266;138367;-70
2023/12/14 02:31:56;;;;;;;16.70;10.80;;;;;;;-0.10;100.00;99444.55;87312;278;25188;-70
2023/12/14 02:33:58;;;;;;;11.60;10.00;;;;;;;-0.14;100.00;99469.75;87381;270;136946;-69
2023/12/14 02:36:00;;;;;;;10.30;8.80;;;;;;;-0.12;100.00;99444.88;87377;278;26305;-70
2023/12/14 02:38:02;;;;;;;11.90;10.70;;;;;;;-0.09;100.00;99434.55;87231;267;138222;-71
2023/12/14 02:40:06;;;;;;;11.40;10.30;;;;;;;-0.09;100.00;99440.79;87197;279;137645;-71
2023/12/14 02:42:08;;;;;;;14.80;11.40;;;;;;;-0.07;100.00;99437.11;87388;278;22576;-73
2023/12/14 02:44:10;;;;;;;13.40;12.00;;;;;;;-0.04;100.00;99425.52;87254;266;137495;-72
2023/12/14 02:46:15;;;;;;;12.80;10.70;;;;;;;-0.02;100.00;99437.52;87223;281;24033;-73
2023/12/14 02:48:17;;;;;;;14.10;10.40;;;;;;;-0.02;100.00;99433.48;87266;270;138650;-69
2023/12/14 02:50:19;;;;;;;11.60;10.00;;;;;;;-0.02;100.00;99435.63;87277;270;24071;-71
2023/12/14 02:52:22;;;;;;;9.70;7.90;;;;;;;-0.03;100.00;99431.86;87180;270;137748;-68
2023/12/14 02:54:26;;;;;;;12.10;10.90;;;;;;;-0.12;100.00;99424.11;87391;278;22493;-68
2023/12/14 02:56:27;;;;;;;8.10;7.30;;;;;;;-0.11;100.00;99427.70;86974;268;136707;-69
2023/12/14 02:58:29;;;;;;;9.50;8.60;;;;;;;-0.09;100.00;99422.84;87291;274;22558;-69
2023/12/14 03:00:31;;;;;;;11.70;9.80;;;;;;;-0.13;100.00;99409.06;87239;270;138113;-68
2023/12/14 03:02:34;;;;;;;11.20;10.20;;;;;;;-0.04;100.00;99408.40;87387;266;24241;-68
2023/12/14 03:04:39;;;;;;;10.80;8.10;;;;;;;-0.02;100.00;99413.44;87322;274;137244;-70
2023/12/14 03:06:41;;;;;;;;;;;;;;;-0.01;100.00;99410.86;87387;270;22542;-70
2023/12/14 03:08:43;;;;;;;10.30;9.20;;;;;;;0.01;100.00;99410.37;87245;279;123185;-70
2023/12/14 03:10:45;;;;;;;9.50;8.50;;;;;;;0.01;100.00;99404.77;87394;279;22697;-69
2023/12/14 03:12:47;;;;;;;9.30;8.40;;;;;;;-0.01;100.00;99399.70;87172;271;136726;-70
2023/12/14 03:14:49;;;;;;;8.60;7.30;;;;;;;-0.00;100.00;99398.79;87361;270;25182;-67
2023/12/14 03:16:52;;;;;;;8.50;7.30;;;;;;;-0.03;100.00;99391.48;87246;271;136750;-67
2023/12/14 03:18:58;;;;;;;8.80;8.00;;;;;;;-0.02;100.00;99383.58;87409;274;22845;-69
2023/12/14 03:21:01;;;;;;;8.10;7.40;;;;;;;-0.02;100.00;99394.16;87325;275;136724;-68
2023/12/14 03:23:03;;;;;;;10.30;8.60;;;;;;;-0.01;100.00;99380.62;87316;270;25861;-68
2023/12/14 03:25:06;;;;;;;9.00;8.20;;;;;;;0.02;100.00;99383.16;87180;271;138387;-67
2023/12/14 03:27:08;;;;;;;9.70;8.60;;;;;;;0.06;100.00;99383.18;87393;271;23997;-67
2023/12/14 03:29:10;;;;;;;7.30;6.60;;;;;;;0.11;100.00;99378.36;87214;271;136869;-68
2023/12/14 03:31:13;;;;;;;8.10;6.90;;;;;;;0.14;100.00;99371.23;87337;271;22574;-69
2023/12/14 03:33:15;;;;;;;7.80;7.00;;;;;;;0.14;100.00;99360.58;87252;271;136569;-68
2023/12/14 03:35:17;;;;;;;9.50;8.30;;;;;;;0.16;100.00;99365.76;87211;280;24003;-68
2023/12/14 03:37:19;;;;;;;7.00;6.40;;;;;;;0.21;100.00;99361.98;87271;278;136783;-67
2023/12/14 03:39:23;;;;;;;5.90;5.40;;;;;;;0.26;100.00;99360.73;87381;270;24020;-67
2023/12/14 03:41:26;;;;;;;8.00;7.30;;;;;;;0.27;100.00;99354.77;87283;270;136772;-69
2023/12/14 03:43:28;;;;;;;7.20;6.60;;;;;;;0.30;100.00;99362.71;87336;266;22618;-67
2023/12/14 03:45:31;;;;;;;10.40;6.80;;;;;;;0.32;100.00;99357.13;87231;271;136529;-67
2023/12/14 03:47:33;;;;;;;6.10;5.60;;;;;;;0.33;100.00;99349.17;87317;271;22983;-68
2023/12/14 03:49:38;;;;;;;8.20;7.30;;;;;;;0.31;100.00;99359.26;87224;278;138870;-68
2023/12/14 03:51:40;;;;;;;9.10;8.20;;;;;;;0.30;100.00;99347.17;87259;274;22558;-70
2023/12/14 03:53:42;;;;;;;8.90;8.00;;;;;;;0.32;100.00;99350.66;87046;270;138026;-69
2023/12/14 03:55:44;;;;;;;6.50;5.90;;;;;;;0.31;100.00;99355.08;87134;274;22562;-66
2023/12/14 03:57:46;;;;;;;7.40;6.70;;;;;;;0.33;100.00;99368.23;87049;270;138022;-70
2023/12/14 03:59:48;;;;;;;8.10;6.30;;;;;;;0.35;100.00;99356.14;87313;270;25124;-68
2023/12/14 04:01:50;;;;;;;8.30;7.20;;;;;;;0.36;100.00;99336.27;87117;271;137327;-69
2023/12/14 04:03:52;;;;;;;5.10;4.70;;;;;;;0.36;100.00;99334.34;87244;274;24007;-68
2023/12/14 04:05:54;;;;;;;7.00;6.30;;;;;;;0.37;100.00;99336.54;87121;266;136117;-68
2023/12/14 04:07:56;;;;;;;9.10;7.10;;;;;;;0.39;100.00;99339.12;87250;266;24866;-69
2023/12/14 04:09:59;;;;;;;5.50;4.80;;;;;;;0.42;100.00;99365.80;87060;278;137240;-68
2023/12/14 04:12:01;;;;;;;5.70;4.60;;;;;;;0.44;100.00;99342.17;87349;266;25152;-70
2023/12/14 04:14:03;;;;;;;7.20;5.20;;;;;;;0.49;100.00;99335.35;87196;270;136567;-69
2023/12/14 04:16:05;;;;;;;8.80;6.50;;;;;;;0.53;100.00;99343.01;87145;262;139491;-69
2023/12/14 04:18:08;;;;;;;5.60;5.10;;;;;;;0.56;100.00;99342.34;87200;275;22558;-70
2023/12/14 04:20:12;;;;;;;5.80;5.10;;;;;;;0.56;100.00;99329.43;87144;271;136873;-71
2023/12/14 04:22:14;;;;;;;8.90;6.30;;;;;;;0.44;100.00;99335.53;87358;274;22577;-72
2023/12/14 04:24:16;;;;;;;11.50;8.40;;;;;;;0.46;100.00;99334.11;87160;270;136694;-73
2023/12/14 04:26:18;;;;;;;6.30;5.60;;;;;;;0.47;100.00;99343.96;87233;279;25124;-69
2023/12/14 04:28:20;;;;;;;13.20;7.50;;;;;;;0.46;100.00;99326.75;87212;270;136727;-69
2023/12/14 04:30:22;;;;;;;22.00;11.80;;;;;;;0.46;100.00;99328.34;87205;270;25082;-73
2023/12/14 04:32:25;;;;;;;7.40;4.90;;;;;;;0.46;100.00;99325.34;87204;274;137535;-74
2023/12/14 04:34:27;;;;;;;7.40;4.40;;;;;;;0.36;100.00;99324.76;87265;274;25188;-71
2023/12/14 04:36:29;;;;;;;4.70;4.30;;;;;;;0.36;100.00;99328.25;87071;270;136476;-69
2023/12/14 04:38:31;;;;;;;5.30;4.50;;;;;;;0.34;100.00;99332.09;87148;267;22586;-69
2023/12/14 04:40:33;;;;;;;5.90;4.10;;;;;;;0.33;100.00;99322.40;87093;279;137870;-69
2023/12/14 04:42:36;;;;;;;9.60;5.40;;;;;;;0.26;100.00;99314.42;87147;278;22558;-70
2023/12/14 04:44:39;;;;;;;8.20;4.60;;;;;;;0.26;100.00;99311.35;87293;278;136525;-69
2023/12/14 04:46:42;;;;;;;8.40;5.70;;;;;;;0.17;100.00;99287.27;87355;270;25198;-68
2023/12/14 04:48:44;;;;;;;7.20;5.80;;;;;;;0.26;100.00;99305.94;87326;271;136618;-70
2023/12/14 04:50:46;;;;;;;5.30;4.30;;;;;;;0.24;100.00;99305.29;87313;270;24168;-71
2023/12/14 04:52:48;;;;;;;4.50;3.70;;;;;;;0.22;100.00;99315.05;87227;270;136804;-70
2023/12/14 04:54:50;;;;;;;5.00;3.80;;;;;;;0.22;100.00;99317.52;87319;270;25095;-71
2023/12/14 04:56:52;;;;;;;4.90;4.50;;;;;;;0.08;100.00;99312.77;87129;271;136656;-71
2023/12/14 04:58:54;;;;;;;6.50;5.70;;;;;;;0.06;100.00;99307.39;87288;266;22562;-68
2023/12/14 05:00:56;;;;;;;8.10;6.80;;;;;;;0.07;100.00;99290.64;87128;270;136819;-68
2023/12/14 05:02:59;;;;;;;5.70;5.20;;;;;;;0.05;100.00;99296.46;86992;274;24010;-70
2023/12/14 05:05:01;;;;;;;4.50;4.10;;;;;;;0.04;100.00;99320.95;87089;270;136758;-72
2023/12/14 05:07:03;;;;;;;6.90;4.90;;;;;;;-0.03;100.00;99308.75;87152;270;22500;-70
2023/12/14 05:09:06;;;;;;;5.60;5.00;;;;;;;-0.03;100.00;99295.56;87059;270;138135;-70
2023/12/14 05:11:09;;;;;;;7.90;6.70;;;;;;;-0.03;100.00;99283.36;87248;266;26198;-70
2023/12/14 05:13:11;;;;;;;5.40;4.90;;;;;;;-0.01;100.00;99285.79;87118;270;138086;-70
2023/12/14 05:15:14;;;;;;;8.30;7.10;;;;;;;-0.01;100.00;99288.95;87051;268;22535;-67
2023/12/14 05:17:16;;;;;;;8.20;6.60;;;;;;;-0.04;100.00;99280.72;87168;269;138679;-70
2023/12/14 05:19:18;;;;;;;7.70;6.10;;;;;;;-0.04;100.00;99278.40;87035;275;25126;-70
2023/12/14 05:21:20;;;;;;;8.70;5.40;;;;;;;-0.08;100.00;99291.17;87109;277;137043;-70
2023/12/14 05:23:23;;;;;;;7.60;6.80;;;;;;;-0.13;100.00;99300.03;87152;270;22564;-70
2023/12/14 05:25:26;;;;;;;6.70;6.10;;;;;;;-0.15;100.00;99286.79;87322;270;137038;-70
2023/12/14 05:27:28;;;;;;;8.10;6.90;;;;;;;-0.19;100.00;99284.77;86972;270;22904;-71
2023/12/14 05:29:30;;;;;;;7.00;6.40;;;;;;;-0.19;100.00;99276.70;86971;271;137520;-69
2023/12/14 05:31:31;;;;;;;6.90;6.30;;;;;;;-0.21;100.00;99272.71;87017;278;22561;-69
2023/12/14 05:33:37;;;;;;;7.50;6.40;;;;;;;-0.18;100.00;99280.45;86725;273;137563;-68
2023/12/14 05:35:40;;;;;;;8.00;7.20;;;;;;;-0.17;100.00;99256.11;86990;271;22658;-71
2023/12/14 05:37:42;;;;;;;7.70;7.00;;;;;;;-0.17;100.00;99270.05;86954;273;136754;-68
2023/12/14 05:39:45;;;;;;;6.50;5.90;;;;;;;-0.19;100.00;99260.28;86977;272;24014;-69
2023/12/14 05:41:47;;;;;;;7.60;6.30;;;;;;;-0.24;100.00;99277.34;87144;267;137049;-72
2023/12/14 05:43:49;;;;;;;7.10;5.30;;;;;;;-0.38;100.00;99257.36;87213;271;22577;-71
2023/12/14 05:45:51;;;;;;;6.90;6.10;;;;;;;-0.43;100.00;99261.88;87047;279;136724;-70
2023/12/14 05:47:53;;;;;;;7.20;6.60;;;;;;;-0.44;100.00;99249.75;87168;267;23744;-69
2023/12/14 05:49:55;;;;;;;8.20;7.40;;;;;;;-0.42;100.00;99257.77;87274;271;136646;-70
2023/12/14 05:52:00;;;;;;;7.50;6.80;;;;;;;-0.42;100.00;99252.30;87064;270;22594;-69
2023/12/14 05:54:02;;;;;;;8.20;7.20;;;;;;;-0.47;100.00;99264.28;86869;279;136916;-70
2023/12/14 05:56:05;;;;;;;5.90;5.40;;;;;;;-0.49;100.00;99254.92;87020;270;137268;-71
2023/12/14 05:58:08;;;;;;;8.40;6.10;;;;;;;-0.53;100.00;99250.75;89855;268;22339;-69
2023/12/14 06:00:10;;;;;;;8.80;6.80;;;;;;;-0.51;100.00;99240.14;87010;278;137255;-72
2023/12/14 06:02:12;;;;;;;8.50;6.30;;;;;;;-0.48;100.00;99245.88;87363;278;22651;-70
2023/12/14 06:04:16;;;;;;;6.90;6.30;;;;;;;-0.47;100.00;99246.70;87408;270;136699;-72
2023/12/14 06:06:18;;;;;;;5.60;5.00;;;;;;;-0.48;100.00;99246.46;87339;279;23892;-71
2023/12/14 06:08:21;;;;;;;8.00;4.70;;;;;;;-0.47;100.00;99242.65;87333;270;136846;-72
2023/12/14 06:10:23;;;;;;;5.10;4.60;;;;;;;-0.50;100.00;99246.27;87349;274;23265;-72
2023/12/14 06:12:25;;;;;;;6.20;5.60;;;;;;;-0.48;100.00;99240.20;87340;270;137575;-69
2023/12/14 06:14:28;;;;;;;7.70;6.90;;;;;;;-0.46;100.00;99243.75;87085;270;24132;-71
2023/12/14 06:16:30;;;;;;;8.00;7.20;;;;;;;-0.45;100.00;99236.42;86999;274;137057;-69
2023/12/14 06:18:32;;;;;;;7.30;6.20;;;;;;;-0.44;100.00;99246.56;87187;271;24019;-69
2023/12/14 06:20:34;;;;;;;7.30;5.60;;;;;;;-0.47;100.00;99242.81;87099;278;136767;-71
2023/12/14 06:22:37;;;;;;;6.70;6.10;;;;;;;-0.48;100.00;99248.89;87238;266;25095;-69
2023/12/14 06:24:39;;;;;;;6.10;5.30;;;;;;;-0.50;100.00;99229.85;87170;271;138224;-67
2023/12/14 06:26:45;;;;;;;8.00;6.60;;;;;;;-0.50;100.00;99241.75;87228;278;22566;-68
2023/12/14 06:28:47;;;;;;;6.10;5.50;;;;;;;-0.56;100.00;99220.29;87165;270;136912;-68
2023/12/14 06:30:49;;;;;;;8.10;6.50;;;;;;;-0.45;100.00;99228.31;87263;270;22529;-70
2023/12/14 06:32:51;;;;;;;9.40;7.50;;;;;;;-0.59;100.00;99208.56;87072;266;137738;-71
2023/12/14 06:34:53;;;;;;;8.90;8.00;;;;;;;-0.39;100.00;99227.79;87203;270;24018;-72
2023/12/14 06:36:57;;;;;;;7.80;6.30;;;;;;;-0.35;100.00;99221.52;87132;271;136782;-70
2023/12/14 06:39:01;;;;;;;9.30;6.60;;;;;;;-0.38;100.00;99223.64;87264;278;22562;-70
2023/12/14 06:41:03;;;;;;;8.10;6.40;;;;;;;-0.38;100.00;99229.27;87112;278;137083;-69
2023/12/14 06:43:05;;;;;;;7.50;5.90;;;;;;;-0.37;100.00;99217.99;87132;270;22584;-70
2023/12/14 06:45:08;;;;;;;11.50;8.20;;;;;;;-0.34;100.00;99224.57;87055;274;137995;-70
2023/12/14 06:47:10;;;;;;;10.70;7.70;;;;;;;-0.32;100.00;99222.63;87211;272;24052;-71
2023/12/14 06:49:12;;;;;;;8.10;7.10;;;;;;;-0.30;100.00;99215.95;87146;270;138619;-69
2023/12/14 06:51:14;;;;;;;9.50;7.90;;;;;;;-0.28;100.00;99207.75;87115;267;22551;-72
2023/12/14 06:53:16;;;;;;;8.70;6.60;;;;;;;-0.23;100.00;99202.91;87078;270;136661;-71
2023/12/14 06:55:18;;;;;;;8.70;6.80;;;;;;;-0.21;100.00;99210.69;87213;266;25121;-70
2023/12/14 06:57:20;;;;;;;7.80;7.00;;;;;;;-0.19;100.00;99204.55;87059;271;139283;-69
2023/12/14 06:59:25;;;;;;;;;;;;;;;-0.16;100.00;99197.38;87165;277;24012;-69
2023/12/14 07:01:27;;;;;;;7.80;5.50;;;;;;;-0.25;100.00;99215.62;89273;267;124214;-70
2023/12/14 07:03:29;;;;;;;5.40;4.90;;;;;;;-0.32;100.00;99208.23;87133;270;24553;-69
2023/12/14 07:05:32;;;;;;;6.10;5.50;;;;;;;-0.37;100.00;99189.52;87062;278;136929;-71
2023/12/14 07:07:35;;;;;;;6.10;5.20;;;;;;;-0.26;100.00;99208.56;87161;268;22542;-70
2023/12/14 07:09:37;;;;;;;7.00;4.90;;;;;;;-0.27;100.00;99202.89;87193;270;136717;-72
2023/12/14 07:11:41;;;;;;;7.70;4.70;;;;;;;-0.30;100.00;99189.38;86622;279;665919;-72
2023/12/14 07:13:43;;;;;;;5.80;4.90;;;;;;;-0.31;100.00;99189.30;87081;271;138234;-72
2023/12/14 07:15:45;;;;;;;8.60;7.50;;;;;;;-0.26;100.00;99187.80;87281;270;24010;-72
2023/12/14 07:17:48;;;;;;;8.70;7.30;;;;;;;-0.22;100.00;99182.81;87139;266;139455;-72
2023/12/14 07:19:51;;;;;;;8.50;7.30;;;;;;;-0.16;100.00;99180.20;87184;268;24145;-72
2023/12/14 07:21:54;;;;;;;9.50;7.10;;;;;;;-0.11;100.00;99172.33;86979;272;136360;-71
2023/12/14 07:23:56;;;;;;;11.80;8.60;;;;;;;-0.06;100.00;99171.92;87263;266;22587;-69
2023/12/14 07:25:58;;;;;;;8.30;7.40;;;;;;;-0.04;100.00;99176.97;87142;278;138514;-71
2023/12/14 07:28:04;;;;;;;7.50;6.20;;;;;;;-0.12;100.00;99165.64;86933;272;136999;-71
2023/12/14 07:30:09;;;;;;;12.90;8.70;;;;;;;-0.09;100.00;99171.52;87683;271;25082;-73
2023/12/14 07:32:12;;;;;;;12.90;9.70;;;;;;;-0.05;100.00;99165.84;87239;268;137084;-72
2023/12/14 07:34:14;;;;;;;10.20;9.20;;;;;;;-0.01;100.00;99171.91;87336;263;25299;-71
2023/12/14 07:36:16;;;;;;;7.30;6.40;;;;;;;-0.01;100.00;99159.91;87107;274;137518;-71
2023/12/14 07:38:18;;;;;;;10.70;8.70;;;;;;;-0.02;100.00;99168.90;87109;270;24898;-71
2023/12/14 07:40:20;;;;;;;10.30;8.70;;;;;;;-0.02;100.00;99168.74;87105;274;137093;-71
2023/12/14 07:42:22;;;;;;;10.40;8.40;;;;;;;0.01;100.00;99180.16;87204;273;25104;-69
2023/12/14 07:44:25;;;;;;;12.20;8.70;;;;;;;0.02;100.00;99165.04;86994;274;137901;-71
2023/12/14 07:46:27;;;;;;;7.70;6.90;;;;;;;0.04;100.00;99164.17;87300;270;24062;-70
2023/12/14 07:48:29;;;;;;;12.30;8.90;;;;;;;0.03;100.00;99148.66;87084;270;137891;-69
2023/12/14 07:50:31;;;;;;;14.50;9.60;;;;;;;0.05;100.00;99159.29;87270;278;22559;-70
2023/12/14 07:52:34;;;;;;;11.80;8.90;;;;;;;0.05;100.00;99150.21;87123;279;137118;-70
2023/12/14 07:54:37;;;;;;;8.40;7.50;;;;;;;0.07;100.00;99160.02;87244;266;22654;-70
2023/12/14 07:56:39;;;;;;;12.00;10.20;;;;;;;0.03;100.00;99148.69;87086;274;136653;-71
2023/12/14 07:58:41;;;;;;;9.80;8.80;;;;;;;0.07;100.00;99154.71;87149;270;25156;-68
2023/12/14 08:00:43;;;;;;;8.20;7.30;;;;;;;0.13;100.00;99156.30;87058;270;136834;-72
2023/12/14 08:02:45;;;;;;;8.70;7.00;;;;;;;0.11;100.00;99156.59;87285;274;25252;-72
2023/12/14 08:04:47;;;;;;;7.80;7.00;;;;;;;0.11;100.00;99149.27;87208;278;136647;-70
2023/12/14 08:06:49;;;;;;;7.30;6.50;;;;;;;0.12;100.00;99146.79;87278;274;25327;-70
2023/12/14 08:08:51;;;;;;;12.80;8.00;;;;;;;0.11;100.00;99140.95;87139;270;136816;-73
2023/12/14 08:11:59;;;;;;;8.90;6.80;;;;;;;0.10;100.00;99145.15;85218;297;602211;-70
2023/12/14 08:14:03;;;;;;;12.30;9.40;;;;;;;0.11;100.00;99145.94;86050;291;22607;-69
2023/12/14 08:16:06;;;;;;;8.80;7.90;;;;;;;0.14;100.00;99140.27;86002;291;137420;-71
2023/12/14 08:18:08;;;;;;;14.70;11.40;;;;;;;0.16;100.00;99138.13;86319;290;22571;-72
2023/12/14 08:20:12;;;;;;;18.90;14.10;;;;;;;0.18;100.00;99126.72;86139;290;137706;-71
2023/12/14 08:22:15;;;;;;;18.30;11.20;;;;;;;0.21;100.00;99129.08;86310;290;22573;-72
2023/12/14 08:24:18;;;;;;;13.60;10.40;;;;;;;0.20;100.00;99130.98;86201;281;136551;-69
2023/12/14 08:26:20;;;;;;;17.80;12.20;;;;;;;0.24;100.00;99111.23;85909;286;656181;-69
2023/12/14 08:28:23;;;;;;;17.10;12.40;;;;;;;0.24;100.00;99108.77;86289;285;136915;-69
2023/12/14 08:30:25;;;;;;;15.20;11.50;;;;;;;0.25;100.00;99105.08;86268;285;22545;-71
2023/12/14 08:32:27;;;;;;;14.10;10.40;;;;;;;0.20;100.00;99103.70;86143;288;136766;-71
2023/12/14 08:34:30;;;;;;;12.20;9.80;;;;;;;0.24;100.00;99107.46;86253;288;22564;-70
2023/12/14 08:36:32;;;;;;;19.10;12.30;;;;;;;0.27;100.00;99088.98;86291;285;136565;-68
2023/12/14 08:38:34;;;;;;;17.10;11.60;;;;;;;0.33;100.00;99080.53;86410;289;24027;-70
2023/12/14 08:40:36;;;;;;;12.30;10.20;;;;;;;0.37;100.00;99088.35;86215;285;136929;-72
2023/12/14 08:42:38;;;;;;;11.20;10.00;;;;;;;0.42;100.00;99082.46;86611;284;22581;-70
2023/12/14 08:44:41;;;;;;;10.10;8.60;;;;;;;0.40;100.00;99085.79;86288;288;136470;-70
2023/12/14 08:46:46;;;;;;;12.10;8.90;;;;;;;0.38;100.00;99086.49;86460;289;22571;-69
2023/12/14 08:48:49;;;;;;;7.40;6.60;;;;;;;0.37;100.00;99072.63;86359;288;137825;-72
2023/12/14 08:50:54;;;;;;;7.00;6.30;;;;;;;0.33;100.00;99099.81;86899;275;22583;-72
2023/12/14 08:52:58;;;;;;;;;;;;;;;0.29;100.00;99083.06;86940;266;136071;-71
2023/12/14 08:55:02;;;;;;;13.00;8.30;;;;;;;0.30;100.00;99074.56;86921;274;22658;-71
2023/12/14 08:57:04;;;;;;;8.90;6.70;;;;;;;0.27;100.00;99083.57;86945;282;141603;-70
2023/12/14 08:59:07;;;;;;;11.30;9.40;;;;;;;0.25;100.00;99076.61;86985;274;22570;-69
2023/12/14 09:01:09;;;;;;;7.30;5.40;;;;;;;0.25;100.00;99080.73;86852;282;136630;-70
2023/12/14 09:03:11;;;;;;;12.00;8.50;;;;;;;0.25;100.00;99076.64;87036;275;22568;-72
2023/12/14 09:05:16;;;;;;;6.70;5.80;;;;;;;0.24;100.00;99083.02;87002;282;136631;-72
2023/12/14 09:07:18;;;;;;;18.40;11.80;;;;;;;0.23;100.00;99076.91;86950;270;22553;-71
2023/12/14 09:09:21;;;;;;;14.30;8.90;;;;;;;0.22;100.00;99075.66;86808;274;136503;-72
2023/12/14 09:11:23;;;;;;;10.90;8.60;;;;;;;0.20;100.00;99056.48;86882;271;22625;-72
2023/12/14 09:13:25;;;;;;;8.80;7.90;;;;;;;0.19;100.00;99050.82;86975;274;136775;-72
2023/12/14 09:15:27;;;;;;;9.40;7.50;;;;;;;0.17;100.00;99052.92;86971;278;22562;-72
2023/12/14 09:17:32;;;;;;;8.30;6.00;;;;;;;0.14;100.00;99040.00;87191;270;136535;-72
2023/12/14 09:19:38;;;;;;;7.30;5.80;;;;;;;0.14;100.00;99046.61;87239;273;25745;-71
2023/12/14 09:21:42;;;;;;;9.10;7.70;;;;;;;0.14;100.00;99045.77;87125;269;136273;-70
2023/12/14 09:23:47;;;;;;;16.50;8.70;;;;;;;0.12;100.00;99042.25;87350;274;25152;-73
2023/12/14 09:25:49;;;;;;;9.70;8.30;;;;;;;0.12;100.00;99045.09;87200;269;136102;-72
2023/12/14 09:27:52;;;;;;;7.80;5.40;;;;;;;0.13;100.00;99043.21;87324;270;24065;-72
2023/12/14 09:29:54;;;;;;;19.20;11.20;;;;;;;0.12;100.00;99050.14;87187;267;135957;-70
2023/12/14 09:31:57;;;;;;;11.00;8.60;;;;;;;0.12;100.00;99027.77;87222;274;22566;-71
2023/12/14 09:33:59;;;;;;;11.90;8.30;;;;;;;0.17;100.00;99030.98;87127;268;137070;-71